sensor_id;sensor_type;location;lat;lon;timestamp;temperature;humidity
3868;DHT22;1949;48.152;11.528;2023-02-02T00:00:53;8.60;45.10
3868;DHT22;1949;48.152;11.528;2023-02-02T00:03:19;8.60;45.20
3868;DHT22;1949;48.152;11.528;2023-02-02T00:05:50;8.60;45.10
3868;DHT22;1949;48.152;11.528;2023-02-02T00:08:18;8.60;45.30
3868;DHT22;1949;48.152;11.528;2023-02-02T00:10:45;8.60;45.30
3868;DHT22;1949;48.152;11.528;2023-02-02T00:13:11;8.60;45.10
3868;DHT22;1949;48.152;11.528;2023-02-02T00:15:38;8.70;45.20
3868;DHT22;1949;48.152;11.528;2023-02-02T00:18:04;8.70;45.80
3868;DHT22;1949;48.152;11.528;2023-02-02T00:20:30;8.70;45.30
3868;DHT22;1949;48.152;11.528;2023-02-02T00:22:56;8.70;45.10
3868;DHT22;1949;48.152;11.528;2023-02-02T00:25:22;8.70;45.10
3868;DHT22;1949;48.152;11.528;2023-02-02T00:27:49;8.70;45.10
3868;DHT22;1949;48.152;11.528;2023-02-02T00:30:15;8.70;45.20
3868;DHT22;1949;48.152;11.528;2023-02-02T00:32:40;8.70;45.20
3868;DHT22;1949;48.152;11.528;2023-02-02T00:35:07;8.70;45.20
3868;DHT22;1949;48.152;11.528;2023-02-02T00:37:33;8.70;45.30
3868;DHT22;1949;48.152;11.528;2023-02-02T00:39:59;8.70;45.20
3868;DHT22;1949;48.152;11.528;2023-02-02T00:42:25;8.70;45.20
3868;DHT22;1949;48.152;11.528;2023-02-02T00:44:51;8.70;45.30
3868;DHT22;1949;48.152;11.528;2023-02-02T00:47:35;8.70;45.30
3868;DHT22;1949;48.152;11.528;2023-02-02T00:50:01;8.70;45.30
3868;DHT22;1949;48.152;11.528;2023-02-02T00:52:27;8.70;45.30
3868;DHT22;1949;48.152;11.528;2023-02-02T00:54:53;8.70;45.30
3868;DHT22;1949;48.152;11.528;2023-02-02T00:57:18;8.70;45.20
3868;DHT22;1949;48.152;11.528;2023-02-02T00:59:44;8.70;45.30
3868;DHT22;1949;48.152;11.528;2023-02-02T01:02:11;8.70;45.30
3868;DHT22;1949;48.152;11.528;2023-02-02T01:04:37;8.60;45.30
3868;DHT22;1949;48.152;11.528;2023-02-02T01:07:03;8.50;45.30
3868;DHT22;1949;48.152;11.528;2023-02-02T01:09:29;8.50;46.00
3868;DHT22;1949;48.152;11.528;2023-02-02T01:11:56;8.50;45.60
3868;DHT22;1949;48.152;11.528;2023-02-02T01:14:22;8.50;45.60
3868;DHT22;1949;48.152;11.528;2023-02-02T01:16:49;8.50;45.70
3868;DHT22;1949;48.152;11.528;2023-02-02T01:19:15;8.60;45.70
3868;DHT22;1949;48.152;11.528;2023-02-02T01:21:42;8.50;45.60
3868;DHT22;1949;48.152;11.528;2023-02-02T01:24:09;8.50;45.50
3868;DHT22;1949;48.152;11.528;2023-02-02T01:26:34;8.50;45.70
3868;DHT22;1949;48.152;11.528;2023-02-02T01:29:00;8.50;45.70
3868;DHT22;1949;48.152;11.528;2023-02-02T01:31:26;8.50;45.70
3868;DHT22;1949;48.152;11.528;2023-02-02T01:33:51;8.50;45.80
3868;DHT22;1949;48.152;11.528;2023-02-02T01:36:20;8.40;45.70
3868;DHT22;1949;48.152;11.528;2023-02-02T01:38:47;8.50;45.90
3868;DHT22;1949;48.152;11.528;2023-02-02T01:41:16;8.50;45.90
3868;DHT22;1949;48.152;11.528;2023-02-02T01:46:12;8.60;46.00
3868;DHT22;1949;48.152;11.528;2023-02-02T01:48:40;8.50;45.80
3868;DHT22;1949;48.152;11.528;2023-02-02T01:51:09;8.40;45.80
3868;DHT22;1949;48.152;11.528;2023-02-02T01:53:36;8.50;45.90
3868;DHT22;1949;48.152;11.528;2023-02-02T02:46:32;8.30;45.80
3868;DHT22;1949;48.152;11.528;2023-02-02T02:49:00;8.30;45.90
3868;DHT22;1949;48.152;11.528;2023-02-02T02:51:45;8.30;46.00
3868;DHT22;1949;48.152;11.528;2023-02-02T02:54:34;8.30;46.00
3868;DHT22;1949;48.152;11.528;2023-02-02T03:03:04;8.40;45.90
3868;DHT22;1949;48.152;11.528;2023-02-02T03:08:10;8.40;45.90
3868;DHT22;1949;48.152;11.528;2023-02-02T03:10:42;8.40;45.90
3868;DHT22;1949;48.152;11.528;2023-02-02T03:13:11;8.40;46.00
3868;DHT22;1949;48.152;11.528;2023-02-02T03:15:44;8.40;45.80
3868;DHT22;1949;48.152;11.528;2023-02-02T03:18:11;8.40;46.00
3868;DHT22;1949;48.152;11.528;2023-02-02T03:20:38;8.40;46.10
3868;DHT22;1949;48.152;11.528;2023-02-02T03:23:04;8.40;46.00
3868;DHT22;1949;48.152;11.528;2023-02-02T03:25:30;8.40;46.10
3868;DHT22;1949;48.152;11.528;2023-02-02T03:27:57;8.40;46.10
3868;DHT22;1949;48.152;11.528;2023-02-02T03:30:23;8.50;46.20
3868;DHT22;1949;48.152;11.528;2023-02-02T03:32:50;8.40;46.00
3868;DHT22;1949;48.152;11.528;2023-02-02T03:35:16;8.50;46.20
3868;DHT22;1949;48.152;11.528;2023-02-02T03:37:42;8.50;46.20
3868;DHT22;1949;48.152;11.528;2023-02-02T03:40:08;8.50;46.20
3868;DHT22;1949;48.152;11.528;2023-02-02T03:42:34;8.40;46.00
3868;DHT22;1949;48.152;11.528;2023-02-02T03:45:00;8.40;46.40
3868;DHT22;1949;48.152;11.528;2023-02-02T03:47:29;8.40;46.50
3868;DHT22;1949;48.152;11.528;2023-02-02T03:49:54;8.50;46.50
3868;DHT22;1949;48.152;11.528;2023-02-02T03:52:20;8.50;46.50
3868;DHT22;1949;48.152;11.528;2023-02-02T03:54:46;8.50;46.40
3868;DHT22;1949;48.152;11.528;2023-02-02T03:57:12;8.50;46.40
3868;DHT22;1949;48.152;11.528;2023-02-02T03:59:38;8.50;46.40
3868;DHT22;1949;48.152;11.528;2023-02-02T04:02:04;8.50;46.50
3868;DHT22;1949;48.152;11.528;2023-02-02T04:04:31;8.50;46.40
3868;DHT22;1949;48.152;11.528;2023-02-02T04:06:56;8.50;46.40
3868;DHT22;1949;48.152;11.528;2023-02-02T04:09:23;8.50;46.60
3868;DHT22;1949;48.152;11.528;2023-02-02T04:11:49;8.50;46.40
3868;DHT22;1949;48.152;11.528;2023-02-02T04:14:15;8.50;46.40
3868;DHT22;1949;48.152;11.528;2023-02-02T04:16:40;8.50;46.40
3868;DHT22;1949;48.152;11.528;2023-02-02T04:19:06;8.50;46.60
3868;DHT22;1949;48.152;11.528;2023-02-02T04:21:33;8.50;46.50
3868;DHT22;1949;48.152;11.528;2023-02-02T04:23:58;8.50;46.50
3868;DHT22;1949;48.152;11.528;2023-02-02T04:26:25;8.50;46.70
3868;DHT22;1949;48.152;11.528;2023-02-02T04:28:52;8.60;46.60
3868;DHT22;1949;48.152;11.528;2023-02-02T04:31:18;8.60;46.70
3868;DHT22;1949;48.152;11.528;2023-02-02T04:33:44;8.60;46.60
3868;DHT22;1949;48.152;11.528;2023-02-02T04:36:09;8.60;46.40
3868;DHT22;1949;48.152;11.528;2023-02-02T04:38:36;8.60;46.40
3868;DHT22;1949;48.152;11.528;2023-02-02T04:41:06;8.60;46.60
3868;DHT22;1949;48.152;11.528;2023-02-02T04:43:34;8.60;46.60
3868;DHT22;1949;48.152;11.528;2023-02-02T04:45:59;8.60;46.60
3868;DHT22;1949;48.152;11.528;2023-02-02T04:48:25;8.50;46.40
3868;DHT22;1949;48.152;11.528;2023-02-02T04:50:59;8.60;46.60
3868;DHT22;1949;48.152;11.528;2023-02-02T04:53:26;8.50;46.60
3868;DHT22;1949;48.152;11.528;2023-02-02T04:55:51;8.50;46.70
3868;DHT22;1949;48.152;11.528;2023-02-02T04:58:17;8.50;46.60
3868;DHT22;1949;48.152;11.528;2023-02-02T05:00:44;8.50;46.60
3868;DHT22;1949;48.152;11.528;2023-02-02T05:03:10;8.50;46.50
3868;DHT22;1949;48.152;11.528;2023-02-02T05:05:35;8.60;46.60
3868;DHT22;1949;48.152;11.528;2023-02-02T05:08:01;8.50;46.60
3868;DHT22;1949;48.152;11.528;2023-02-02T05:10:27;8.50;46.60
3868;DHT22;1949;48.152;11.528;2023-02-02T05:12:54;8.50;46.50
3868;DHT22;1949;48.152;11.528;2023-02-02T05:15:20;8.50;46.70
3868;DHT22;1949;48.152;11.528;2023-02-02T05:17:47;8.50;46.80
3868;DHT22;1949;48.152;11.528;2023-02-02T05:20:14;8.50;46.70
3868;DHT22;1949;48.152;11.528;2023-02-02T05:22:39;8.50;46.60
3868;DHT22;1949;48.152;11.528;2023-02-02T05:25:07;8.50;46.70
3868;DHT22;1949;48.152;11.528;2023-02-02T05:27:33;8.50;46.70
3868;DHT22;1949;48.152;11.528;2023-02-02T05:29:59;8.50;46.70
3868;DHT22;1949;48.152;11.528;2023-02-02T05:32:25;8.60;46.80
3868;DHT22;1949;48.152;11.528;2023-02-02T05:34:52;8.60;46.70
3868;DHT22;1949;48.152;11.528;2023-02-02T05:37:18;8.60;46.80
3868;DHT22;1949;48.152;11.528;2023-02-02T05:39:43;8.60;46.80
3868;DHT22;1949;48.152;11.528;2023-02-02T05:42:09;8.60;46.90
3868;DHT22;1949;48.152;11.528;2023-02-02T05:44:35;8.60;46.90
3868;DHT22;1949;48.152;11.528;2023-02-02T05:47:00;8.60;46.90
3868;DHT22;1949;48.152;11.528;2023-02-02T05:49:27;8.60;46.80
3868;DHT22;1949;48.152;11.528;2023-02-02T05:51:55;8.60;46.90
3868;DHT22;1949;48.152;11.528;2023-02-02T05:54:22;8.60;46.80
3868;DHT22;1949;48.152;11.528;2023-02-02T05:56:49;8.60;46.80
3868;DHT22;1949;48.152;11.528;2023-02-02T05:59:16;8.60;46.90
3868;DHT22;1949;48.152;11.528;2023-02-02T06:01:43;8.60;46.90
3868;DHT22;1949;48.152;11.528;2023-02-02T06:04:09;8.60;46.90
3868;DHT22;1949;48.152;11.528;2023-02-02T06:06:34;8.60;47.00
3868;DHT22;1949;48.152;11.528;2023-02-02T06:09:02;8.60;46.90
3868;DHT22;1949;48.152;11.528;2023-02-02T06:11:28;8.60;46.80
3868;DHT22;1949;48.152;11.528;2023-02-02T06:13:56;8.60;46.90
3868;DHT22;1949;48.152;11.528;2023-02-02T06:16:22;8.60;47.10
3868;DHT22;1949;48.152;11.528;2023-02-02T06:18:48;8.60;47.00
3868;DHT22;1949;48.152;11.528;2023-02-02T06:21:14;8.60;46.90
3868;DHT22;1949;48.152;11.528;2023-02-02T06:23:40;8.50;46.70
3868;DHT22;1949;48.152;11.528;2023-02-02T06:26:13;8.50;46.70
3868;DHT22;1949;48.152;11.528;2023-02-02T06:28:40;8.50;47.00
3868;DHT22;1949;48.152;11.528;2023-02-02T06:31:08;8.50;47.20
3868;DHT22;1949;48.152;11.528;2023-02-02T06:33:34;8.60;47.20
3868;DHT22;1949;48.152;11.528;2023-02-02T06:36:01;8.60;47.10
3868;DHT22;1949;48.152;11.528;2023-02-02T06:38:27;8.60;47.00
3868;DHT22;1949;48.152;11.528;2023-02-02T06:40:53;8.60;46.90
3868;DHT22;1949;48.152;11.528;2023-02-02T06:43:19;8.60;47.00
3868;DHT22;1949;48.152;11.528;2023-02-02T06:45:44;8.60;47.10
3868;DHT22;1949;48.152;11.528;2023-02-02T06:48:10;8.60;47.00
3868;DHT22;1949;48.152;11.528;2023-02-02T06:50:39;8.60;47.00
3868;DHT22;1949;48.152;11.528;2023-02-02T06:53:05;8.60;47.00
3868;DHT22;1949;48.152;11.528;2023-02-02T06:55:30;8.60;47.10
3868;DHT22;1949;48.152;11.528;2023-02-02T06:57:58;8.50;47.00
3868;DHT22;1949;48.152;11.528;2023-02-02T07:00:24;8.50;47.00
3868;DHT22;1949;48.152;11.528;2023-02-02T07:02:50;8.50;47.00
3868;DHT22;1949;48.152;11.528;2023-02-02T07:05:16;8.50;47.00
3868;DHT22;1949;48.152;11.528;2023-02-02T07:07:44;8.60;47.20
3868;DHT22;1949;48.152;11.528;2023-02-02T07:10:10;8.60;47.20
3868;DHT22;1949;48.152;11.528;2023-02-02T07:12:36;8.60;47.00
3868;DHT22;1949;48.152;11.528;2023-02-02T07:15:03;8.60;47.70
3868;DHT22;1949;48.152;11.528;2023-02-02T07:17:30;8.60;47.10
3868;DHT22;1949;48.152;11.528;2023-02-02T07:19:56;8.60;47.10
3868;DHT22;1949;48.152;11.528;2023-02-02T07:22:22;8.60;47.10
3868;DHT22;1949;48.152;11.528;2023-02-02T07:24:48;8.60;47.20
3868;DHT22;1949;48.152;11.528;2023-02-02T07:27:14;8.60;47.30
3868;DHT22;1949;48.152;11.528;2023-02-02T07:29:39;8.60;47.30
3868;DHT22;1949;48.152;11.528;2023-02-02T07:32:05;8.60;47.20
3868;DHT22;1949;48.152;11.528;2023-02-02T07:34:31;8.70;47.40
3868;DHT22;1949;48.152;11.528;2023-02-02T07:36:57;8.70;47.30
3868;DHT22;1949;48.152;11.528;2023-02-02T07:39:22;8.70;47.20
3868;DHT22;1949;48.152;11.528;2023-02-02T07:41:48;8.70;47.20
3868;DHT22;1949;48.152;11.528;2023-02-02T07:44:15;8.70;47.20
3868;DHT22;1949;48.152;11.528;2023-02-02T07:46:45;8.70;47.20
3868;DHT22;1949;48.152;11.528;2023-02-02T07:49:16;8.70;47.20
3868;DHT22;1949;48.152;11.528;2023-02-02T07:51:42;8.60;47.10
3868;DHT22;1949;48.152;11.528;2023-02-02T07:54:09;8.70;47.40
3868;DHT22;1949;48.152;11.528;2023-02-02T07:56:38;8.70;47.30
3868;DHT22;1949;48.152;11.528;2023-02-02T07:59:04;8.70;47.20
3868;DHT22;1949;48.152;11.528;2023-02-02T08:01:30;8.60;47.20
3868;DHT22;1949;48.152;11.528;2023-02-02T08:03:58;8.60;47.40
3868;DHT22;1949;48.152;11.528;2023-02-02T08:06:27;8.50;47.30
3868;DHT22;1949;48.152;11.528;2023-02-02T08:08:53;8.50;47.50
3868;DHT22;1949;48.152;11.528;2023-02-02T08:11:20;8.60;47.60
3868;DHT22;1949;48.152;11.528;2023-02-02T08:13:58;8.50;47.50
3868;DHT22;1949;48.152;11.528;2023-02-02T08:16:25;8.60;47.60
3868;DHT22;1949;48.152;11.528;2023-02-02T08:18:51;8.60;47.60
3868;DHT22;1949;48.152;11.528;2023-02-02T08:21:17;8.60;47.50
3868;DHT22;1949;48.152;11.528;2023-02-02T08:23:44;8.60;47.50
3868;DHT22;1949;48.152;11.528;2023-02-02T08:26:18;8.60;47.80
3868;DHT22;1949;48.152;11.528;2023-02-02T08:28:46;8.50;47.60
3868;DHT22;1949;48.152;11.528;2023-02-02T08:31:27;8.60;47.80
3868;DHT22;1949;48.152;11.528;2023-02-02T08:33:54;8.60;47.70
3868;DHT22;1949;48.152;11.528;2023-02-02T08:36:23;8.70;47.90
3868;DHT22;1949;48.152;11.528;2023-02-02T08:38:50;8.60;47.50
3868;DHT22;1949;48.152;11.528;2023-02-02T08:41:19;8.60;47.80
3868;DHT22;1949;48.152;11.528;2023-02-02T08:43:45;8.60;47.80
3868;DHT22;1949;48.152;11.528;2023-02-02T08:46:12;8.70;47.80
3868;DHT22;1949;48.152;11.528;2023-02-02T08:48:39;8.70;47.80
3868;DHT22;1949;48.152;11.528;2023-02-02T08:51:05;8.70;47.80
3868;DHT22;1949;48.152;11.528;2023-02-02T08:53:32;8.70;47.80
3868;DHT22;1949;48.152;11.528;2023-02-02T08:58:29;8.70;47.80
3868;DHT22;1949;48.152;11.528;2023-02-02T09:01:06;8.70;47.90
3868;DHT22;1949;48.152;11.528;2023-02-02T09:03:32;8.70;47.80
3868;DHT22;1949;48.152;11.528;2023-02-02T09:06:13;8.70;47.90
3868;DHT22;1949;48.152;11.528;2023-02-02T09:08:39;8.70;48.00
3868;DHT22;1949;48.152;11.528;2023-02-02T09:11:06;8.70;47.90
3868;DHT22;1949;48.152;11.528;2023-02-02T09:13:33;8.70;48.00
3868;DHT22;1949;48.152;11.528;2023-02-02T09:16:03;8.70;48.00
3868;DHT22;1949;48.152;11.528;2023-02-02T09:18:29;8.70;48.00
3868;DHT22;1949;48.152;11.528;2023-02-02T09:20:58;8.80;48.00
3868;DHT22;1949;48.152;11.528;2023-02-02T09:23:25;8.80;48.10
3868;DHT22;1949;48.152;11.528;2023-02-02T09:25:51;8.80;48.00
3868;DHT22;1949;48.152;11.528;2023-02-02T09:28:18;8.80;48.00
3868;DHT22;1949;48.152;11.528;2023-02-02T09:30:44;8.80;48.10
3868;DHT22;1949;48.152;11.528;2023-02-02T09:33:10;8.80;48.10
3868;DHT22;1949;48.152;11.528;2023-02-02T09:35:36;8.80;48.00
3868;DHT22;1949;48.152;11.528;2023-02-02T09:38:03;8.70;48.00
3868;DHT22;1949;48.152;11.528;2023-02-02T09:40:31;8.70;48.00
3868;DHT22;1949;48.152;11.528;2023-02-02T09:45:46;8.80;48.30
3868;DHT22;1949;48.152;11.528;2023-02-02T09:51:05;8.70;48.10
3868;DHT22;1949;48.152;11.528;2023-02-02T09:56:06;8.80;48.40
3868;DHT22;1949;48.152;11.528;2023-02-02T09:58:44;8.80;48.20
3868;DHT22;1949;48.152;11.528;2023-02-02T10:01:19;8.70;48.20
3868;DHT22;1949;48.152;11.528;2023-02-02T10:06:50;8.70;48.20
3868;DHT22;1949;48.152;11.528;2023-02-02T10:14:39;8.80;48.40
3868;DHT22;1949;48.152;11.528;2023-02-02T10:17:25;8.80;48.20
3868;DHT22;1949;48.152;11.528;2023-02-02T10:22:50;8.70;48.20
3868;DHT22;1949;48.152;11.528;2023-02-02T10:25:16;8.80;48.20
3868;DHT22;1949;48.152;11.528;2023-02-02T10:28:03;8.80;48.30
3868;DHT22;1949;48.152;11.528;2023-02-02T10:30:58;8.70;48.40
3868;DHT22;1949;48.152;11.528;2023-02-02T10:33:38;8.70;48.30
3868;DHT22;1949;48.152;11.528;2023-02-02T10:36:17;8.70;48.40
3868;DHT22;1949;48.152;11.528;2023-02-02T10:39:07;8.70;48.40
3868;DHT22;1949;48.152;11.528;2023-02-02T10:42:12;8.70;48.50
3868;DHT22;1949;48.152;11.528;2023-02-02T10:47:08;8.70;48.40
3868;DHT22;1949;48.152;11.528;2023-02-02T10:49:36;8.70;48.50
3868;DHT22;1949;48.152;11.528;2023-02-02T10:52:17;8.80;48.60
3868;DHT22;1949;48.152;11.528;2023-02-02T10:55:02;8.70;48.30
3868;DHT22;1949;48.152;11.528;2023-02-02T11:00:45;8.70;48.30
3868;DHT22;1949;48.152;11.528;2023-02-02T11:03:17;8.70;48.40
3868;DHT22;1949;48.152;11.528;2023-02-02T11:05:45;8.70;48.30
3868;DHT22;1949;48.152;11.528;2023-02-02T11:08:41;8.70;48.40
3868;DHT22;1949;48.152;11.528;2023-02-02T11:11:40;8.70;48.50
3868;DHT22;1949;48.152;11.528;2023-02-02T11:16:36;8.80;48.70
3868;DHT22;1949;48.152;11.528;2023-02-02T11:19:27;8.80;48.80
3868;DHT22;1949;48.152;11.528;2023-02-02T11:21:56;8.90;48.50
3868;DHT22;1949;48.152;11.528;2023-02-02T11:24:44;8.90;48.50
3868;DHT22;1949;48.152;11.528;2023-02-02T11:27:20;8.80;48.50
3868;DHT22;1949;48.152;11.528;2023-02-02T11:29:55;8.90;48.60
3868;DHT22;1949;48.152;11.528;2023-02-02T11:35:14;8.90;48.70
3868;DHT22;1949;48.152;11.528;2023-02-02T11:37:55;9.00;48.60
3868;DHT22;1949;48.152;11.528;2023-02-02T11:42:52;9.00;48.70
3868;DHT22;1949;48.152;11.528;2023-02-02T11:45:29;9.00;48.70
3868;DHT22;1949;48.152;11.528;2023-02-02T11:48:04;9.00;48.70
3868;DHT22;1949;48.152;11.528;2023-02-02T11:50:31;9.00;48.70
3868;DHT22;1949;48.152;11.528;2023-02-02T11:52:57;9.00;48.70
3868;DHT22;1949;48.152;11.528;2023-02-02T11:55:29;9.00;49.30
3868;DHT22;1949;48.152;11.528;2023-02-02T12:00:51;9.00;48.90
3868;DHT22;1949;48.152;11.528;2023-02-02T12:03:45;9.10;48.80
3868;DHT22;1949;48.152;11.528;2023-02-02T12:08:47;9.10;48.80
3868;DHT22;1949;48.152;11.528;2023-02-02T12:14:16;9.10;48.80
3868;DHT22;1949;48.152;11.528;2023-02-02T12:19:40;9.00;48.60
3868;DHT22;1949;48.152;11.528;2023-02-02T12:27:51;8.90;48.90
3868;DHT22;1949;48.152;11.528;2023-02-02T12:43:45;8.80;49.00
3868;DHT22;1949;48.152;11.528;2023-02-02T12:46:42;8.80;49.10
3868;DHT22;1949;48.152;11.528;2023-02-02T12:49:22;8.80;49.20
3868;DHT22;1949;48.152;11.528;2023-02-02T12:52:18;8.80;49.20
3868;DHT22;1949;48.152;11.528;2023-02-02T12:55:14;8.90;49.30
3868;DHT22;1949;48.152;11.528;2023-02-02T12:58:31;8.80;49.10
3868;DHT22;1949;48.152;11.528;2023-02-02T13:09:16;8.80;49.40
3868;DHT22;1949;48.152;11.528;2023-02-02T13:14:31;8.80;49.20
3868;DHT22;1949;48.152;11.528;2023-02-02T13:17:08;8.80;49.50
3868;DHT22;1949;48.152;11.528;2023-02-02T13:19:58;8.80;49.40
3868;DHT22;1949;48.152;11.528;2023-02-02T13:22:47;8.80;49.50
3868;DHT22;1949;48.152;11.528;2023-02-02T13:28:27;8.80;49.50
3868;DHT22;1949;48.152;11.528;2023-02-02T13:30:56;8.80;49.50
3868;DHT22;1949;48.152;11.528;2023-02-02T13:33:29;8.80;49.60
3868;DHT22;1949;48.152;11.528;2023-02-02T13:36:01;8.70;49.60
3868;DHT22;1949;48.152;11.528;2023-02-02T13:38:29;8.70;49.60
3868;DHT22;1949;48.152;11.528;2023-02-02T13:40:58;8.70;49.60
3868;DHT22;1949;48.152;11.528;2023-02-02T13:43:37;8.70;49.70
3868;DHT22;1949;48.152;11.528;2023-02-02T13:49:19;8.70;49.60
3868;DHT22;1949;48.152;11.528;2023-02-02T13:54:51;8.70;50.40
3868;DHT22;1949;48.152;11.528;2023-02-02T14:00:22;8.70;49.90
3868;DHT22;1949;48.152;11.528;2023-02-02T14:02:58;8.70;49.90
3868;DHT22;1949;48.152;11.528;2023-02-02T14:07:57;8.70;50.00
3868;DHT22;1949;48.152;11.528;2023-02-02T14:11:14;8.70;50.00
3868;DHT22;1949;48.152;11.528;2023-02-02T14:13:20;8.70;50.00
3868;DHT22;1949;48.152;11.528;2023-02-02T14:16:07;8.70;50.00
3868;DHT22;1949;48.152;11.528;2023-02-02T14:18:52;8.70;50.00
3868;DHT22;1949;48.152;11.528;2023-02-02T14:23:56;8.70;50.20
3868;DHT22;1949;48.152;11.528;2023-02-02T14:31:56;8.70;50.20
3868;DHT22;1949;48.152;11.528;2023-02-02T14:34:31;8.70;50.10
3868;DHT22;1949;48.152;11.528;2023-02-02T14:45:39;8.80;50.20
3868;DHT22;1949;48.152;11.528;2023-02-02T14:55:53;8.80;50.20
3868;DHT22;1949;48.152;11.528;2023-02-02T14:58:59;8.80;50.20
3868;DHT22;1949;48.152;11.528;2023-02-02T15:04:16;8.80;50.20
3868;DHT22;1949;48.152;11.528;2023-02-02T15:06:42;8.70;50.20
3868;DHT22;1949;48.152;11.528;2023-02-02T15:15:06;8.70;50.40
3868;DHT22;1949;48.152;11.528;2023-02-02T15:20:31;8.70;50.40
3868;DHT22;1949;48.152;11.528;2023-02-02T15:26:03;8.70;50.60
3868;DHT22;1949;48.152;11.528;2023-02-02T15:34:18;8.70;50.40
3868;DHT22;1949;48.152;11.528;2023-02-02T15:36:50;8.70;50.40
3868;DHT22;1949;48.152;11.528;2023-02-02T15:39:32;8.70;50.70
3868;DHT22;1949;48.152;11.528;2023-02-02T15:42:05;8.80;51.00
3868;DHT22;1949;48.152;11.528;2023-02-02T15:44:51;8.90;51.10
3868;DHT22;1949;48.152;11.528;2023-02-02T15:47:23;8.90;50.60
3868;DHT22;1949;48.152;11.528;2023-02-02T15:49:52;8.90;50.60
3868;DHT22;1949;48.152;11.528;2023-02-02T15:54:57;8.90;50.80
3868;DHT22;1949;48.152;11.528;2023-02-02T15:57:35;8.90;50.70
3868;DHT22;1949;48.152;11.528;2023-02-02T16:08:02;8.90;50.60
3868;DHT22;1949;48.152;11.528;2023-02-02T16:10:28;8.80;50.60
3868;DHT22;1949;48.152;11.528;2023-02-02T16:12:55;8.90;50.70
3868;DHT22;1949;48.152;11.528;2023-02-02T16:15:25;8.80;50.50
3868;DHT22;1949;48.152;11.528;2023-02-02T16:18:10;8.80;50.60
3868;DHT22;1949;48.152;11.528;2023-02-02T16:20:38;8.70;50.50
3868;DHT22;1949;48.152;11.528;2023-02-02T16:23:12;8.70;50.70
3868;DHT22;1949;48.152;11.528;2023-02-02T16:25:50;8.70;50.80
3868;DHT22;1949;48.152;11.528;2023-02-02T16:28:20;8.70;50.80
3868;DHT22;1949;48.152;11.528;2023-02-02T16:30:52;8.70;50.80
3868;DHT22;1949;48.152;11.528;2023-02-02T16:33:42;8.70;51.00
3868;DHT22;1949;48.152;11.528;2023-02-02T16:38:54;8.80;50.90
3868;DHT22;1949;48.152;11.528;2023-02-02T16:41:29;8.80;51.00
3868;DHT22;1949;48.152;11.528;2023-02-02T16:50:24;8.70;50.70
3868;DHT22;1949;48.152;11.528;2023-02-02T16:53:05;8.70;50.70
3868;DHT22;1949;48.152;11.528;2023-02-02T16:55:34;8.70;50.80
3868;DHT22;1949;48.152;11.528;2023-02-02T16:58:01;8.70;50.80
3868;DHT22;1949;48.152;11.528;2023-02-02T17:00:30;8.70;50.80
3868;DHT22;1949;48.152;11.528;2023-02-02T17:03:06;8.70;51.00
3868;DHT22;1949;48.152;11.528;2023-02-02T17:05:54;8.70;51.00
3868;DHT22;1949;48.152;11.528;2023-02-02T17:08:33;8.70;51.00
3868;DHT22;1949;48.152;11.528;2023-02-02T17:11:05;8.70;51.00
3868;DHT22;1949;48.152;11.528;2023-02-02T17:13:41;8.70;50.90
3868;DHT22;1949;48.152;11.528;2023-02-02T17:16:40;8.70;51.00
3868;DHT22;1949;48.152;11.528;2023-02-02T17:19:12;8.70;50.90
3868;DHT22;1949;48.152;11.528;2023-02-02T17:21:41;8.80;51.10
3868;DHT22;1949;48.152;11.528;2023-02-02T17:24:08;8.80;51.20
3868;DHT22;1949;48.152;11.528;2023-02-02T17:26:35;8.90;51.20
3868;DHT22;1949;48.152;11.528;2023-02-02T17:29:03;8.80;50.80
3868;DHT22;1949;48.152;11.528;2023-02-02T17:31:31;8.80;50.90
3868;DHT22;1949;48.152;11.528;2023-02-02T17:34:24;8.80;51.00
3868;DHT22;1949;48.152;11.528;2023-02-02T17:36:51;8.90;51.00
3868;DHT22;1949;48.152;11.528;2023-02-02T17:39:24;8.90;51.00
3868;DHT22;1949;48.152;11.528;2023-02-02T17:41:51;8.80;50.90
3868;DHT22;1949;48.152;11.528;2023-02-02T17:44:18;8.90;51.00
3868;DHT22;1949;48.152;11.528;2023-02-02T17:46:45;8.90;51.10
3868;DHT22;1949;48.152;11.528;2023-02-02T17:49:13;8.90;51.10
3868;DHT22;1949;48.152;11.528;2023-02-02T17:51:41;8.90;51.00
3868;DHT22;1949;48.152;11.528;2023-02-02T17:54:13;8.80;50.80
3868;DHT22;1949;48.152;11.528;2023-02-02T17:56:40;8.80;51.00
3868;DHT22;1949;48.152;11.528;2023-02-02T17:59:06;8.80;51.00
3868;DHT22;1949;48.152;11.528;2023-02-02T18:01:34;8.80;51.60
3868;DHT22;1949;48.152;11.528;2023-02-02T18:04:03;8.80;51.00
3868;DHT22;1949;48.152;11.528;2023-02-02T18:06:35;8.80;51.00
3868;DHT22;1949;48.152;11.528;2023-02-02T18:09:02;8.90;51.00
3868;DHT22;1949;48.152;11.528;2023-02-02T18:11:28;8.90;51.10
3868;DHT22;1949;48.152;11.528;2023-02-02T18:13:53;8.80;51.00
3868;DHT22;1949;48.152;11.528;2023-02-02T18:16:19;8.80;51.00
3868;DHT22;1949;48.152;11.528;2023-02-02T18:18:46;8.80;51.00
3868;DHT22;1949;48.152;11.528;2023-02-02T18:21:12;8.80;50.90
3868;DHT22;1949;48.152;11.528;2023-02-02T18:23:41;8.80;51.00
3868;DHT22;1949;48.152;11.528;2023-02-02T18:26:12;8.80;51.10
3868;DHT22;1949;48.152;11.528;2023-02-02T18:28:38;8.80;51.00
3868;DHT22;1949;48.152;11.528;2023-02-02T18:31:11;8.80;51.60
3868;DHT22;1949;48.152;11.528;2023-02-02T18:33:38;8.80;51.10
3868;DHT22;1949;48.152;11.528;2023-02-02T18:38:36;8.80;51.30
3868;DHT22;1949;48.152;11.528;2023-02-02T18:41:04;8.80;51.30
3868;DHT22;1949;48.152;11.528;2023-02-02T18:43:30;8.80;51.20
3868;DHT22;1949;48.152;11.528;2023-02-02T18:45:58;8.80;51.10
3868;DHT22;1949;48.152;11.528;2023-02-02T18:48:24;8.80;51.20
3868;DHT22;1949;48.152;11.528;2023-02-02T18:50:50;8.80;51.30
3868;DHT22;1949;48.152;11.528;2023-02-02T18:53:16;8.80;51.20
3868;DHT22;1949;48.152;11.528;2023-02-02T18:55:42;8.70;51.00
3868;DHT22;1949;48.152;11.528;2023-02-02T18:58:08;8.70;51.20
3868;DHT22;1949;48.152;11.528;2023-02-02T19:00:39;8.80;51.40
3868;DHT22;1949;48.152;11.528;2023-02-02T19:03:05;8.70;51.40
3868;DHT22;1949;48.152;11.528;2023-02-02T19:05:31;8.70;51.50
3868;DHT22;1949;48.152;11.528;2023-02-02T19:08:16;8.70;51.30
3868;DHT22;1949;48.152;11.528;2023-02-02T19:10:42;8.70;51.30
3868;DHT22;1949;48.152;11.528;2023-02-02T19:13:18;8.70;51.20
3868;DHT22;1949;48.152;11.528;2023-02-02T19:15:48;8.70;51.40
3868;DHT22;1949;48.152;11.528;2023-02-02T19:18:23;8.70;51.40
3868;DHT22;1949;48.152;11.528;2023-02-02T19:20:49;8.70;51.60
3868;DHT22;1949;48.152;11.528;2023-02-02T19:23:20;8.80;51.40
3868;DHT22;1949;48.152;11.528;2023-02-02T19:25:51;8.70;51.40
3868;DHT22;1949;48.152;11.528;2023-02-02T19:28:23;8.70;51.50
3868;DHT22;1949;48.152;11.528;2023-02-02T19:30:51;8.70;51.70
3868;DHT22;1949;48.152;11.528;2023-02-02T19:33:20;8.80;52.00
3868;DHT22;1949;48.152;11.528;2023-02-02T19:35:52;8.80;51.50
3868;DHT22;1949;48.152;11.528;2023-02-02T19:38:24;8.80;51.50
3868;DHT22;1949;48.152;11.528;2023-02-02T19:40:59;8.80;51.60
3868;DHT22;1949;48.152;11.528;2023-02-02T19:43:28;8.80;51.60
3868;DHT22;1949;48.152;11.528;2023-02-02T19:45:58;8.80;51.70
3868;DHT22;1949;48.152;11.528;2023-02-02T19:48:26;8.80;51.70
3868;DHT22;1949;48.152;11.528;2023-02-02T19:50:53;8.90;51.70
3868;DHT22;1949;48.152;11.528;2023-02-02T19:53:23;8.90;51.60
3868;DHT22;1949;48.152;11.528;2023-02-02T19:55:50;8.80;51.50
3868;DHT22;1949;48.152;11.528;2023-02-02T19:58:19;8.80;51.50
3868;DHT22;1949;48.152;11.528;2023-02-02T20:00:47;8.80;51.60